sensor_id;sensor_type;location;lat;lon;timestamp;P1;durP1;ratioP1;P2;durP2;ratioP2
17949;SDS011;9100;48.700;9.316;2023-04-24T00:00:24;0.9;;;0.8;;
17949;SDS011;9100;48.700;9.316;2023-04-24T00:01:24;0.9;;;0.8;;
17949;SDS011;9100;48.700;9.316;2023-04-24T00:02:24;0.9;;;0.8;;
17949;SDS011;9100;48.700;9.316;2023-04-24T00:03:24;0.9;;;0.8;;
17949;SDS011;9100;48.700;9.316;2023-04-24T00:04:24;0.9;;;0.8;;
17949;SDS011;9100;48.700;9.316;2023-04-24T00:04:45;1.5;;;1.4;;
17949;SDS011;9100;48.700;9.316;2023-04-24T00:05:24;1.5;;;1.4;;
17949;SDS011;9100;48.700;9.316;2023-04-24T00:06:24;1.5;;;1.4;;
17949;SDS011;9100;48.700;9.316;2023-04-24T00:07:24;1.5;;;1.4;;
17949;SDS011;9100;48.700;9.316;2023-04-24T00:08:24;1.5;;;1.4;;
17949;SDS011;9100;48.700;9.316;2023-04-24T00:09:24;1.5;;;1.4;;
17949;SDS011;9100;48.700;9.316;2023-04-24T00:09:45;2.2;;;1.2;;
17949;SDS011;9100;48.700;9.316;2023-04-24T00:10:24;2.2;;;1.2;;
17949;SDS011;9100;48.700;9.316;2023-04-24T00:11:24;2.2;;;1.2;;
17949;SDS011;9100;48.700;9.316;2023-04-24T00:12:24;2.2;;;1.2;;
17949;SDS011;9100;48.700;9.316;2023-04-24T00:13:24;2.2;;;1.2;;
17949;SDS011;9100;48.700;9.316;2023-04-24T00:14:24;2.2;;;1.2;;
17949;SDS011;9100;48.700;9.316;2023-04-24T00:14:45;0.8;;;0.8;;
17949;SDS011;9100;48.700;9.316;2023-04-24T00:15:24;0.8;;;0.8;;
17949;SDS011;9100;48.700;9.316;2023-04-24T00:16:23;0.8;;;0.8;;
17949;SDS011;9100;48.700;9.316;2023-04-24T00:17:24;0.8;;;0.8;;
17949;SDS011;9100;48.700;9.316;2023-04-24T00:18:24;0.8;;;0.8;;
17949;SDS011;9100;48.700;9.316;2023-04-24T00:19:24;0.8;;;0.8;;
17949;SDS011;9100;48.700;9.316;2023-04-24T00:19:45;1.6;;;0.9;;
17949;SDS011;9100;48.700;9.316;2023-04-24T00:20:24;1.6;;;0.9;;
17949;SDS011;9100;48.700;9.316;2023-04-24T00:21:24;1.6;;;0.9;;
17949;SDS011;9100;48.700;9.316;2023-04-24T00:22:24;1.6;;;0.9;;
17949;SDS011;9100;48.700;9.316;2023-04-24T00:23:24;1.6;;;0.9;;
17949;SDS011;9100;48.700;9.316;2023-04-24T00:24:24;1.6;;;0.9;;
17949;SDS011;9100;48.700;9.316;2023-04-24T00:24:45;0.8;;;0.8;;
17949;SDS011;9100;48.700;9.316;2023-04-24T00:25:24;0.8;;;0.8;;
17949;SDS011;9100;48.700;9.316;2023-04-24T00:26:24;0.8;;;0.8;;
17949;SDS011;9100;48.700;9.316;2023-04-24T00:27:24;0.8;;;0.8;;
17949;SDS011;9100;48.700;9.316;2023-04-24T00:28:24;0.8;;;0.8;;
17949;SDS011;9100;48.700;9.316;2023-04-24T00:29:24;0.8;;;0.8;;
17949;SDS011;9100;48.700;9.316;2023-04-24T00:29:45;1.7;;;1;;
17949;SDS011;9100;48.700;9.316;2023-04-24T00:30:24;1.7;;;1;;
17949;SDS011;9100;48.700;9.316;2023-04-24T00:31:24;1.7;;;1;;
17949;SDS011;9100;48.700;9.316;2023-04-24T00:32:24;1.7;;;1;;
17949;SDS011;9100;48.700;9.316;2023-04-24T00:33:24;1.7;;;1;;
17949;SDS011;9100;48.700;9.316;2023-04-24T00:34:24;1.7;;;1;;
17949;SDS011;9100;48.700;9.316;2023-04-24T00:34:45;1.8;;;1;;
17949;SDS011;9100;48.700;9.316;2023-04-24T00:35:24;1.8;;;1;;
17949;SDS011;9100;48.700;9.316;2023-04-24T00:36:24;1.8;;;1;;
17949;SDS011;9100;48.700;9.316;2023-04-24T00:37:24;1.8;;;1;;
17949;SDS011;9100;48.700;9.316;2023-04-24T00:38:24;1.8;;;1;;
17949;SDS011;9100;48.700;9.316;2023-04-24T00:39:24;1.8;;;1;;
17949;SDS011;9100;48.700;9.316;2023-04-24T00:39:45;1.6;;;0.9;;
17949;SDS011;9100;48.700;9.316;2023-04-24T00:40:24;1.6;;;0.9;;
17949;SDS011;9100;48.700;9.316;2023-04-24T00:41:24;1.6;;;0.9;;
17949;SDS011;9100;48.700;9.316;2023-04-24T00:42:24;1.6;;;0.9;;
17949;SDS011;9100;48.700;9.316;2023-04-24T00:43:24;1.6;;;0.9;;
17949;SDS011;9100;48.700;9.316;2023-04-24T00:44:24;1.6;;;0.9;;
17949;SDS011;9100;48.700;9.316;2023-04-24T00:44:45;1.3;;;0.8;;
17949;SDS011;9100;48.700;9.316;2023-04-24T00:45:24;1.3;;;0.8;;
17949;SDS011;9100;48.700;9.316;2023-04-24T00:46:24;1.3;;;0.8;;
17949;SDS011;9100;48.700;9.316;2023-04-24T00:47:24;1.3;;;0.8;;
17949;SDS011;9100;48.700;9.316;2023-04-24T00:48:24;1.3;;;0.8;;
17949;SDS011;9100;48.700;9.316;2023-04-24T00:49:24;1.3;;;0.8;;
17949;SDS011;9100;48.700;9.316;2023-04-24T00:49:45;0.9;;;0.9;;
17949;SDS011;9100;48.700;9.316;2023-04-24T00:50:24;0.9;;;0.9;;
17949;SDS011;9100;48.700;9.316;2023-04-24T00:51:24;0.9;;;0.9;;
17949;SDS011;9100;48.700;9.316;2023-04-24T00:52:24;0.9;;;0.9;;
17949;SDS011;9100;48.700;9.316;2023-04-24T00:53:24;0.9;;;0.9;;
17949;SDS011;9100;48.700;9.316;2023-04-24T00:54:24;0.9;;;0.9;;
17949;SDS011;9100;48.700;9.316;2023-04-24T00:54:45;1;;;0.9;;
17949;SDS011;9100;48.700;9.316;2023-04-24T00:55:24;1;;;0.9;;
17949;SDS011;9100;48.700;9.316;2023-04-24T00:56:24;1;;;0.9;;
17949;SDS011;9100;48.700;9.316;2023-04-24T00:57:24;1;;;0.9;;
17949;SDS011;9100;48.700;9.316;2023-04-24T00:58:24;1;;;0.9;;
17949;SDS011;9100;48.700;9.316;2023-04-24T00:59:24;1;;;0.9;;
17949;SDS011;9100;48.700;9.316;2023-04-24T00:59:45;0.9;;;0.8;;
17949;SDS011;9100;48.700;9.316;2023-04-24T01:00:24;0.9;;;0.8;;
17949;SDS011;9100;48.700;9.316;2023-04-24T01:01:24;0.9;;;0.8;;
17949;SDS011;9100;48.700;9.316;2023-04-24T01:02:24;0.9;;;0.8;;
17949;SDS011;9100;48.700;9.316;2023-04-24T01:03:25;0.9;;;0.8;;
17949;SDS011;9100;48.700;9.316;2023-04-24T01:04:24;0.9;;;0.8;;
17949;SDS011;9100;48.700;9.316;2023-04-24T01:04:45;3.4;;;0.9;;
17949;SDS011;9100;48.700;9.316;2023-04-24T01:05:24;3.4;;;0.9;;
17949;SDS011;9100;48.700;9.316;2023-04-24T01:06:24;3.4;;;0.9;;
17949;SDS011;9100;48.700;9.316;2023-04-24T01:07:24;3.4;;;0.9;;
17949;SDS011;9100;48.700;9.316;2023-04-24T01:08:24;3.4;;;0.9;;
17949;SDS011;9100;48.700;9.316;2023-04-24T01:09:24;3.4;;;0.9;;
17949;SDS011;9100;48.700;9.316;2023-04-24T01:09:45;1.1;;;1;;
17949;SDS011;9100;48.700;9.316;2023-04-24T01:10:24;1.1;;;1;;
17949;SDS011;9100;48.700;9.316;2023-04-24T01:11:24;1.1;;;1;;
17949;SDS011;9100;48.700;9.316;2023-04-24T01:12:24;1.1;;;1;;
17949;SDS011;9100;48.700;9.316;2023-04-24T01:13:24;1.1;;;1;;
17949;SDS011;9100;48.700;9.316;2023-04-24T01:14:24;1.1;;;1;;
17949;SDS011;9100;48.700;9.316;2023-04-24T01:14:45;0.9;;;0.8;;
17949;SDS011;9100;48.700;9.316;2023-04-24T01:15:24;0.9;;;0.8;;
17949;SDS011;9100;48.700;9.316;2023-04-24T01:16:24;0.9;;;0.8;;
17949;SDS011;9100;48.700;9.316;2023-04-24T01:17:24;0.9;;;0.8;;
17949;SDS011;9100;48.700;9.316;2023-04-24T01:18:24;0.9;;;0.8;;
17949;SDS011;9100;48.700;9.316;2023-04-24T01:19:24;0.9;;;0.8;;
17949;SDS011;9100;48.700;9.316;2023-04-24T01:19:45;0.7;;;0.7;;
17949;SDS011;9100;48.700;9.316;2023-04-24T01:20:24;0.7;;;0.7;;
17949;SDS011;9100;48.700;9.316;2023-04-24T01:21:25;0.7;;;0.7;;
17949;SDS011;9100;48.700;9.316;2023-04-24T01:22:24;0.7;;;0.7;;
17949;SDS011;9100;48.700;9.316;2023-04-24T01:23:24;0.7;;;0.7;;
17949;SDS011;9100;48.700;9.316;2023-04-24T01:24:24;0.7;;;0.7;;
17949;SDS011;9100;48.700;9.316;2023-04-24T01:24:45;1;;;0.7;;
17949;SDS011;9100;48.700;9.316;2023-04-24T01:25:24;1;;;0.7;;
17949;SDS011;9100;48.700;9.316;2023-04-24T01:26:24;1;;;0.7;;
17949;SDS011;9100;48.700;9.316;2023-04-24T01:27:24;1;;;0.7;;
17949;SDS011;9100;48.700;9.316;2023-04-24T01:28:24;1;;;0.7;;
17949;SDS011;9100;48.700;9.316;2023-04-24T01:29:24;1;;;0.7;;
17949;SDS011;9100;48.700;9.316;2023-04-24T01:29:45;1.3;;;0.9;;
17949;SDS011;9100;48.700;9.316;2023-04-24T01:30:24;1.3;;;0.9;;
17949;SDS011;9100;48.700;9.316;2023-04-24T01:31:24;1.3;;;0.9;;
17949;SDS011;9100;48.700;9.316;2023-04-24T01:32:24;1.3;;;0.9;;
17949;SDS011;9100;48.700;9.316;2023-04-24T01:33:24;1.3;;;0.9;;
17949;SDS011;9100;48.700;9.316;2023-04-24T01:34:24;1.3;;;0.9;;
17949;SDS011;9100;48.700;9.316;2023-04-24T01:34:45;1.4;;;1.1;;
17949;SDS011;9100;48.700;9.316;2023-04-24T01:35:24;1.4;;;1.1;;
17949;SDS011;9100;48.700;9.316;2023-04-24T01:36:24;1.4;;;1.1;;
17949;SDS011;9100;48.700;9.316;2023-04-24T01:37:24;1.4;;;1.1;;
17949;SDS011;9100;48.700;9.316;2023-04-24T01:38:24;1.4;;;1.1;;
17949;SDS011;9100;48.700;9.316;2023-04-24T01:39:24;1.4;;;1.1;;
17949;SDS011;9100;48.700;9.316;2023-04-24T01:39:45;0.9;;;0.9;;
17949;SDS011;9100;48.700;9.316;2023-04-24T01:40:24;0.9;;;0.9;;
17949;SDS011;9100;48.700;9.316;2023-04-24T01:41:24;0.9;;;0.9;;
17949;SDS011;9100;48.700;9.316;2023-04-24T01:42:24;0.9;;;0.9;;
17949;SDS011;9100;48.700;9.316;2023-04-24T01:43:24;0.9;;;0.9;;
17949;SDS011;9100;48.700;9.316;2023-04-24T01:44:24;0.9;;;0.9;;
17949;SDS011;9100;48.700;9.316;2023-04-24T01:44:45;1.8;;;0.9;;
17949;SDS011;9100;48.700;9.316;2023-04-24T01:45:24;1.8;;;0.9;;
17949;SDS011;9100;48.700;9.316;2023-04-24T01:46:24;1.8;;;0.9;;
17949;SDS011;9100;48.700;9.316;2023-04-24T01:47:24;1.8;;;0.9;;
17949;SDS011;9100;48.700;9.316;2023-04-24T01:48:24;1.8;;;0.9;;
17949;SDS011;9100;48.700;9.316;2023-04-24T01:49:24;1.8;;;0.9;;
17949;SDS011;9100;48.700;9.316;2023-04-24T01:49:45;1.1;;;0.8;;
17949;SDS011;9100;48.700;9.316;2023-04-24T01:50:24;1.1;;;0.8;;
17949;SDS011;9100;48.700;9.316;2023-04-24T01:51:24;1.1;;;0.8;;
17949;SDS011;9100;48.700;9.316;2023-04-24T01:52:24;1.1;;;0.8;;
17949;SDS011;9100;48.700;9.316;2023-04-24T01:53:24;1.1;;;0.8;;
17949;SDS011;9100;48.700;9.316;2023-04-24T01:54:24;1.1;;;0.8;;
17949;SDS011;9100;48.700;9.316;2023-04-24T01:54:45;0.8;;;0.8;;
17949;SDS011;9100;48.700;9.316;2023-04-24T01:55:24;0.8;;;0.8;;
17949;SDS011;9100;48.700;9.316;2023-04-24T01:56:24;0.8;;;0.8;;
17949;SDS011;9100;48.700;9.316;2023-04-24T01:57:24;0.8;;;0.8;;
17949;SDS011;9100;48.700;9.316;2023-04-24T01:58:24;0.8;;;0.8;;
17949;SDS011;9100;48.700;9.316;2023-04-24T01:59:24;0.8;;;0.8;;
17949;SDS011;9100;48.700;9.316;2023-04-24T01:59:45;0.8;;;0.8;;
17949;SDS011;9100;48.700;9.316;2023-04-24T02:00:24;0.8;;;0.8;;
17949;SDS011;9100;48.700;9.316;2023-04-24T02:01:24;0.8;;;0.8;;
17949;SDS011;9100;48.700;9.316;2023-04-24T02:02:24;0.8;;;0.8;;
17949;SDS011;9100;48.700;9.316;2023-04-24T02:03:24;0.8;;;0.8;;
17949;SDS011;9100;48.700;9.316;2023-04-24T02:04:24;0.8;;;0.8;;
17949;SDS011;9100;48.700;9.316;2023-04-24T02:04:45;1;;;0.8;;
17949;SDS011;9100;48.700;9.316;2023-04-24T02:05:24;1;;;0.8;;
17949;SDS011;9100;48.700;9.316;2023-04-24T02:06:24;1;;;0.8;;
17949;SDS011;9100;48.700;9.316;2023-04-24T02:07:24;1;;;0.8;;
17949;SDS011;9100;48.700;9.316;2023-04-24T02:08:24;1;;;0.8;;
17949;SDS011;9100;48.700;9.316;2023-04-24T02:09:24;1;;;0.8;;
17949;SDS011;9100;48.700;9.316;2023-04-24T02:09:45;0.9;;;0.8;;
17949;SDS011;9100;48.700;9.316;2023-04-24T02:10:24;0.9;;;0.8;;
17949;SDS011;9100;48.700;9.316;2023-04-24T02:11:24;0.9;;;0.8;;
17949;SDS011;9100;48.700;9.316;2023-04-24T02:12:24;0.9;;;0.8;;
17949;SDS011;9100;48.700;9.316;2023-04-24T02:13:24;0.9;;;0.8;;
17949;SDS011;9100;48.700;9.316;2023-04-24T02:14:24;0.9;;;0.8;;
17949;SDS011;9100;48.700;9.316;2023-04-24T02:14:45;1.2;;;0.9;;
17949;SDS011;9100;48.700;9.316;2023-04-24T02:15:24;1.2;;;0.9;;
17949;SDS011;9100;48.700;9.316;2023-04-24T02:16:24;1.2;;;0.9;;
17949;SDS011;9100;48.700;9.316;2023-04-24T02:17:24;1.2;;;0.9;;
17949;SDS011;9100;48.700;9.316;2023-04-24T02:18:24;1.2;;;0.9;;
17949;SDS011;9100;48.700;9.316;2023-04-24T02:19:24;1.2;;;0.9;;
17949;SDS011;9100;48.700;9.316;2023-04-24T02:19:45;0.7;;;0.7;;
17949;SDS011;9100;48.700;9.316;2023-04-24T02:20:24;0.7;;;0.7;;
17949;SDS011;9100;48.700;9.316;2023-04-24T02:21:24;0.7;;;0.7;;
17949;SDS011;9100;48.700;9.316;2023-04-24T02:22:24;0.7;;;0.7;;
17949;SDS011;9100;48.700;9.316;2023-04-24T02:23:24;0.7;;;0.7;;
17949;SDS011;9100;48.700;9.316;2023-04-24T02:24:24;0.7;;;0.7;;
17949;SDS011;9100;48.700;9.316;2023-04-24T02:24:45;0.9;;;0.6;;
17949;SDS011;9100;48.700;9.316;2023-04-24T02:25:24;0.9;;;0.6;;
17949;SDS011;9100;48.700;9.316;2023-04-24T02:26:24;0.9;;;0.6;;
17949;SDS011;9100;48.700;9.316;2023-04-24T02:27:24;0.9;;;0.6;;
17949;SDS011;9100;48.700;9.316;2023-04-24T02:28:24;0.9;;;0.6;;
17949;SDS011;9100;48.700;9.316;2023-04-24T02:29:24;0.9;;;0.6;;
17949;SDS011;9100;48.700;9.316;2023-04-24T02:29:45;0.7;;;0.7;;
17949;SDS011;9100;48.700;9.316;2023-04-24T02:30:24;0.7;;;0.7;;
17949;SDS011;9100;48.700;9.316;2023-04-24T02:31:24;0.7;;;0.7;;
17949;SDS011;9100;48.700;9.316;2023-04-24T02:32:24;0.7;;;0.7;;
17949;SDS011;9100;48.700;9.316;2023-04-24T02:33:24;0.7;;;0.7;;
17949;SDS011;9100;48.700;9.316;2023-04-24T02:34:24;0.7;;;0.7;;
17949;SDS011;9100;48.700;9.316;2023-04-24T02:34:45;1.2;;;0.9;;
17949;SDS011;9100;48.700;9.316;2023-04-24T02:35:24;1.2;;;0.9;;
17949;SDS011;9100;48.700;9.316;2023-04-24T02:36:24;1.2;;;0.9;;
17949;SDS011;9100;48.700;9.316;2023-04-24T02:37:24;1.2;;;0.9;;
17949;SDS011;9100;48.700;9.316;2023-04-24T02:38:24;1.2;;;0.9;;
17949;SDS011;9100;48.700;9.316;2023-04-24T02:39:24;1.2;;;0.9;;
17949;SDS011;9100;48.700;9.316;2023-04-24T02:39:45;1.2;;;0.8;;
17949;SDS011;9100;48.700;9.316;2023-04-24T02:40:24;1.2;;;0.8;;
17949;SDS011;9100;48.700;9.316;2023-04-24T02:41:24;1.2;;;0.8;;
17949;SDS011;9100;48.700;9.316;2023-04-24T02:42:24;1.2;;;0.8;;
17949;SDS011;9100;48.700;9.316;2023-04-24T02:43:24;1.2;;;0.8;;
17949;SDS011;9100;48.700;9.316;2023-04-24T02:44:24;1.2;;;0.8;;
17949;SDS011;9100;48.700;9.316;2023-04-24T02:44:45;0.7;;;0.7;;
17949;SDS011;9100;48.700;9.316;2023-04-24T02:45:24;0.7;;;0.7;;
17949;SDS011;9100;48.700;9.316;2023-04-24T02:46:24;0.7;;;0.7;;
17949;SDS011;9100;48.700;9.316;2023-04-24T02:47:24;0.7;;;0.7;;
17949;SDS011;9100;48.700;9.316;2023-04-24T02:48:24;0.7;;;0.7;;
17949;SDS011;9100;48.700;9.316;2023-04-24T02:49:24;0.7;;;0.7;;
17949;SDS011;9100;48.700;9.316;2023-04-24T02:49:45;3.5;;;1.1;;
17949;SDS011;9100;48.700;9.316;2023-04-24T02:50:24;3.5;;;1.1;;
17949;SDS011;9100;48.700;9.316;2023-04-24T02:51:24;3.5;;;1.1;;
17949;SDS011;9100;48.700;9.316;2023-04-24T02:52:24;3.5;;;1.1;;
17949;SDS011;9100;48.700;9.316;2023-04-24T02:53:24;3.5;;;1.1;;
17949;SDS011;9100;48.700;9.316;2023-04-24T02:54:24;3.5;;;1.1;;
17949;SDS011;9100;48.700;9.316;2023-04-24T02:54:45;1.3;;;0.7;;
17949;SDS011;9100;48.700;9.316;2023-04-24T02:55:24;1.3;;;0.7;;
17949;SDS011;9100;48.700;9.316;2023-04-24T02:56:24;1.3;;;0.7;;
17949;SDS011;9100;48.700;9.316;2023-04-24T02:57:24;1.3;;;0.7;;
17949;SDS011;9100;48.700;9.316;2023-04-24T02:58:24;1.3;;;0.7;;
17949;SDS011;9100;48.700;9.316;2023-04-24T02:59:24;1.3;;;0.7;;
17949;SDS011;9100;48.700;9.316;2023-04-24T02:59:45;1.1;;;0.8;;
17949;SDS011;9100;48.700;9.316;2023-04-24T03:00:24;1.1;;;0.8;;
17949;SDS011;9100;48.700;9.316;2023-04-24T03:01:24;1.1;;;0.8;;
17949;SDS011;9100;48.700;9.316;2023-04-24T03:02:24;1.1;;;0.8;;
17949;SDS011;9100;48.700;9.316;2023-04-24T03:03:24;1.1;;;0.8;;
17949;SDS011;9100;48.700;9.316;2023-04-24T03:04:24;1.1;;;0.8;;
17949;SDS011;9100;48.700;9.316;2023-04-24T03:04:45;0.8;;;0.6;;
17949;SDS011;9100;48.700;9.316;2023-04-24T03:05:24;0.8;;;0.6;;
17949;SDS011;9100;48.700;9.316;2023-04-24T03:06:24;0.8;;;0.6;;
17949;SDS011;9100;48.700;9.316;2023-04-24T03:07:24;0.8;;;0.6;;
17949;SDS011;9100;48.700;9.316;2023-04-24T03:08:24;0.8;;;0.6;;
17949;SDS011;9100;48.700;9.316;2023-04-24T03:09:24;0.8;;;0.6;;
17949;SDS011;9100;48.700;9.316;2023-04-24T03:09:45;0.7;;;0.7;;
17949;SDS011;9100;48.700;9.316;2023-04-24T03:10:24;0.7;;;0.7;;
17949;SDS011;9100;48.700;9.316;2023-04-24T03:11:24;0.7;;;0.7;;
17949;SDS011;9100;48.700;9.316;2023-04-24T03:12:24;0.7;;;0.7;;
17949;SDS011;9100;48.700;9.316;2023-04-24T03:13:24;0.7;;;0.7;;
17949;SDS011;9100;48.700;9.316;2023-04-24T03:14:24;0.7;;;0.7;;
17949;SDS011;9100;48.700;9.316;2023-04-24T03:14:45;0.8;;;0.8;;
17949;SDS011;9100;48.700;9.316;2023-04-24T03:15:24;0.8;;;0.8;;
17949;SDS011;9100;48.700;9.316;2023-04-24T03:16:24;0.8;;;0.8;;
17949;SDS011;9100;48.700;9.316;2023-04-24T03:17:24;0.8;;;0.8;;
17949;SDS011;9100;48.700;9.316;2023-04-24T03:18:24;0.8;;;0.8;;
17949;SDS011;9100;48.700;9.316;2023-04-24T03:19:24;0.8;;;0.8;;
17949;SDS011;9100;48.700;9.316;2023-04-24T03:19:45;0.8;;;0.6;;
17949;SDS011;9100;48.700;9.316;2023-04-24T03:20:24;0.8;;;0.6;;
17949;SDS011;9100;48.700;9.316;2023-04-24T03:21:24;0.8;;;0.6;;
17949;SDS011;9100;48.700;9.316;2023-04-24T03:22:24;0.8;;;0.6;;
17949;SDS011;9100;48.700;9.316;2023-04-24T03:23:24;0.8;;;0.6;;
17949;SDS011;9100;48.700;9.316;2023-04-24T03:24:24;0.8;;;0.6;;
17949;SDS011;9100;48.700;9.316;2023-04-24T03:24:45;1.1;;;0.9;;
17949;SDS011;9100;48.700;9.316;2023-04-24T03:25:24;1.1;;;0.9;;
17949;SDS011;9100;48.700;9.316;2023-04-24T03:26:24;1.1;;;0.9;;
17949;SDS011;9100;48.700;9.316;2023-04-24T03:27:24;1.1;;;0.9;;
17949;SDS011;9100;48.700;9.316;2023-04-24T03:28:24;1.1;;;0.9;;
17949;SDS011;9100;48.700;9.316;2023-04-24T03:29:24;1.1;;;0.9;;
17949;SDS011;9100;48.700;9.316;2023-04-24T03:29:45;1.5;;;0.8;;
17949;SDS011;9100;48.700;9.316;2023-04-24T03:30:24;1.5;;;0.8;;
17949;SDS011;9100;48.700;9.316;2023-04-24T03:31:24;1.5;;;0.8;;
17949;SDS011;9100;48.700;9.316;2023-04-24T03:32:24;1.5;;;0.8;;
17949;SDS011;9100;48.700;9.316;2023-04-24T03:33:24;1.5;;;0.8;;
17949;SDS011;9100;48.700;9.316;2023-04-24T03:34:24;1.5;;;0.8;;
17949;SDS011;9100;48.700;9.316;2023-04-24T03:34:45;0.7;;;0.7;;
17949;SDS011;9100;48.700;9.316;2023-04-24T03:35:24;0.7;;;0.7;;
17949;SDS011;9100;48.700;9.316;2023-04-24T03:36:24;0.7;;;0.7;;
17949;SDS011;9100;48.700;9.316;2023-04-24T03:37:24;0.7;;;0.7;;
17949;SDS011;9100;48.700;9.316;2023-04-24T03:38:24;0.7;;;0.7;;
17949;SDS011;9100;48.700;9.316;2023-04-24T03:39:24;0.7;;;0.7;;
17949;SDS011;9100;48.700;9.316;2023-04-24T03:39:45;1;;;0.9;;
17949;SDS011;9100;48.700;9.316;2023-04-24T03:40:24;1;;;0.9;;
17949;SDS011;9100;48.700;9.316;2023-04-24T03:41:24;1;;;0.9;;
17949;SDS011;9100;48.700;9.316;2023-04-24T03:42:24;1;;;0.9;;
17949;SDS011;9100;48.700;9.316;2023-04-24T03:43:24;1;;;0.9;;
17949;SDS011;9100;48.700;9.316;2023-04-24T03:44:24;1;;;0.9;;
17949;SDS011;9100;48.700;9.316;2023-04-24T03:44:45;2.6;;;0.8;;
17949;SDS011;9100;48.700;9.316;2023-04-24T03:45:24;2.6;;;0.8;;
17949;SDS011;9100;48.700;9.316;2023-04-24T03:46:24;2.6;;;0.8;;
17949;SDS011;9100;48.700;9.316;2023-04-24T03:47:24;2.6;;;0.8;;
17949;SDS011;9100;48.700;9.316;2023-04-24T03:48:24;2.6;;;0.8;;
17949;SDS011;9100;48.700;9.316;2023-04-24T03:49:24;2.6;;;0.8;;
17949;SDS011;9100;48.700;9.316;2023-04-24T03:49:45;2;;;0.8;;
17949;SDS011;9100;48.700;9.316;2023-04-24T03:50:24;2;;;0.8;;
17949;SDS011;9100;48.700;9.316;2023-04-24T03:51:24;2;;;0.8;;
17949;SDS011;9100;48.700;9.316;2023-04-24T03:52:24;2;;;0.8;;
17949;SDS011;9100;48.700;9.316;2023-04-24T03:53:24;2;;;0.8;;
17949;SDS011;9100;48.700;9.316;2023-04-24T03:54:24;2;;;0.8;;
17949;SDS011;9100;48.700;9.316;2023-04-24T03:54:45;0.8;;;0.8;;
17949;SDS011;9100;48.700;9.316;2023-04-24T03:55:24;0.8;;;0.8;;
17949;SDS011;9100;48.700;9.316;2023-04-24T03:56:24;0.8;;;0.8;;
17949;SDS011;9100;48.700;9.316;2023-04-24T03:57:24;0.8;;;0.8;;
17949;SDS011;9100;48.700;9.316;2023-04-24T03:58:24;0.8;;;0.8;;
17949;SDS011;9100;48.700;9.316;2023-04-24T03:59:24;0.8;;;0.8;;
17949;SDS011;9100;48.700;9.316;2023-04-24T03:59:45;2.7;;;0.9;;
17949;SDS011;9100;48.700;9.316;2023-04-24T04:00:24;2.7;;;0.9;;
17949;SDS011;9100;48.700;9.316;2023-04-24T04:01:24;2.7;;;0.9;;
17949;SDS011;9100;48.700;9.316;2023-04-24T04:02:24;2.7;;;0.9;;
17949;SDS011;9100;48.700;9.316;2023-04-24T04:03:24;2.7;;;0.9;;
17949;SDS011;9100;48.700;9.316;2023-04-24T04:04:24;2.7;;;0.9;;
17949;SDS011;9100;48.700;9.316;2023-04-24T04:04:45;0.8;;;0.7;;
17949;SDS011;9100;48.700;9.316;2023-04-24T04:05:24;0.8;;;0.7;;
17949;SDS011;9100;48.700;9.316;2023-04-24T04:06:24;0.8;;;0.7;;
17949;SDS011;9100;48.700;9.316;2023-04-24T04:07:24;0.8;;;0.7;;
17949;SDS011;9100;48.700;9.316;2023-04-24T04:08:24;0.8;;;0.7;;
17949;SDS011;9100;48.700;9.316;2023-04-24T04:09:24;0.8;;;0.7;;
17949;SDS011;9100;48.700;9.316;2023-04-24T04:09:45;0.7;;;0.7;;
17949;SDS011;9100;48.700;9.316;2023-04-24T04:10:24;0.7;;;0.7;;
17949;SDS011;9100;48.700;9.316;2023-04-24T04:11:24;0.7;;;0.7;;
17949;SDS011;9100;48.700;9.316;2023-04-24T04:12:24;0.7;;;0.7;;
17949;SDS011;9100;48.700;9.316;2023-04-24T04:13:24;0.7;;;0.7;;
17949;SDS011;9100;48.700;9.316;2023-04-24T04:14:24;0.7;;;0.7;;
17949;SDS011;9100;48.700;9.316;2023-04-24T04:14:45;1;;;1;;
17949;SDS011;9100;48.700;9.316;2023-04-24T04:15:24;1;;;1;;
17949;SDS011;9100;48.700;9.316;2023-04-24T04:16:24;1;;;1;;
17949;SDS011;9100;48.700;9.316;2023-04-24T04:17:24;1;;;1;;
17949;SDS011;9100;48.700;9.316;2023-04-24T04:18:24;1;;;1;;
17949;SDS011;9100;48.700;9.316;2023-04-24T04:19:24;1;;;1;;
17949;SDS011;9100;48.700;9.316;2023-04-24T04:19:45;1.2;;;0.8;;
17949;SDS011;9100;48.700;9.316;2023-04-24T04:20:24;1.2;;;0.8;;
17949;SDS011;9100;48.700;9.316;2023-04-24T04:21:24;1.2;;;0.8;;
17949;SDS011;9100;48.700;9.316;2023-04-24T04:22:24;1.2;;;0.8;;
17949;SDS011;9100;48.700;9.316;2023-04-24T04:23:24;1.2;;;0.8;;
17949;SDS011;9100;48.700;9.316;2023-04-24T04:24:24;1.2;;;0.8;;
17949;SDS011;9100;48.700;9.316;2023-04-24T04:24:45;1.7;;;0.8;;
17949;SDS011;9100;48.700;9.316;2023-04-24T04:25:24;1.7;;;0.8;;
17949;SDS011;9100;48.700;9.316;2023-04-24T04:26:24;1.7;;;0.8;;
17949;SDS011;9100;48.700;9.316;2023-04-24T04:27:24;1.7;;;0.8;;
17949;SDS011;9100;48.700;9.316;2023-04-24T04:28:24;1.7;;;0.8;;
17949;SDS011;9100;48.700;9.316;2023-04-24T04:29:24;1.7;;;0.8;;
17949;SDS011;9100;48.700;9.316;2023-04-24T04:29:45;0.7;;;0.7;;
17949;SDS011;9100;48.700;9.316;2023-04-24T04:30:24;0.7;;;0.7;;
17949;SDS011;9100;48.700;9.316;2023-04-24T04:31:24;0.7;;;0.7;;
17949;SDS011;9100;48.700;9.316;2023-04-24T04:32:24;0.7;;;0.7;;
17949;SDS011;9100;48.700;9.316;2023-04-24T04:33:24;0.7;;;0.7;;
17949;SDS011;9100;48.700;9.316;2023-04-24T04:34:24;0.7;;;0.7;;
17949;SDS011;9100;48.700;9.316;2023-04-24T04:34:45;1.1;;;0.9;;
17949;SDS011;9100;48.700;9.316;2023-04-24T04:35:24;1.1;;;0.9;;
17949;SDS011;9100;48.700;9.316;2023-04-24T04:36:25;1.1;;;0.9;;
17949;SDS011;9100;48.700;9.316;2023-04-24T04:37:24;1.1;;;0.9;;
17949;SDS011;9100;48.700;9.316;2023-04-24T04:38:24;1.1;;;0.9;;
17949;SDS011;9100;48.700;9.316;2023-04-24T04:39:24;1.1;;;0.9;;
17949;SDS011;9100;48.700;9.316;2023-04-24T04:39:45;1.4;;;0.8;;
17949;SDS011;9100;48.700;9.316;2023-04-24T04:40:24;1.4;;;0.8;;
17949;SDS011;9100;48.700;9.316;2023-04-24T04:41:24;1.4;;;0.8;;
17949;SDS011;9100;48.700;9.316;2023-04-24T04:42:24;1.4;;;0.8;;
17949;SDS011;9100;48.700;9.316;2023-04-24T04:43:24;1.4;;;0.8;;
17949;SDS011;9100;48.700;9.316;2023-04-24T04:44:24;1.4;;;0.8;;
17949;SDS011;9100;48.700;9.316;2023-04-24T04:44:45;0.9;;;0.9;;
17949;SDS011;9100;48.700;9.316;2023-04-24T04:45:24;0.9;;;0.9;;
17949;SDS011;9100;48.700;9.316;2023-04-24T04:46:24;0.9;;;0.9;;
17949;SDS011;9100;48.700;9.316;2023-04-24T04:47:24;0.9;;;0.9;;
17949;SDS011;9100;48.700;9.316;2023-04-24T04:48:24;0.9;;;0.9;;
17949;SDS011;9100;48.700;9.316;2023-04-24T04:49:24;0.9;;;0.9;;
17949;SDS011;9100;48.700;9.316;2023-04-24T04:49:45;0.6;;;0.6;;
17949;SDS011;9100;48.700;9.316;2023-04-24T04:50:24;0.6;;;0.6;;
17949;SDS011;9100;48.700;9.316;2023-04-24T04:51:24;0.6;;;0.6;;
17949;SDS011;9100;48.700;9.316;2023-04-24T04:52:24;0.6;;;0.6;;
17949;SDS011;9100;48.700;9.316;2023-04-24T04:53:24;0.6;;;0.6;;
17949;SDS011;9100;48.700;9.316;2023-04-24T04:54:24;0.6;;;0.6;;
17949;SDS011;9100;48.700;9.316;2023-04-24T04:54:45;1.1;;;1;;
17949;SDS011;9100;48.700;9.316;2023-04-24T04:55:24;1.1;;;1;;
17949;SDS011;9100;48.700;9.316;2023-04-24T04:56:24;1.1;;;1;;
17949;SDS011;9100;48.700;9.316;2023-04-24T04:57:24;1.1;;;1;;
17949;SDS011;9100;48.700;9.316;2023-04-24T04:58:24;1.1;;;1;;
17949;SDS011;9100;48.700;9.316;2023-04-24T04:59:24;1.1;;;1;;
17949;SDS011;9100;48.700;9.316;2023-04-24T04:59:45;0.8;;;0.8;;
17949;SDS011;9100;48.700;9.316;2023-04-24T05:00:24;0.8;;;0.8;;
17949;SDS011;9100;48.700;9.316;2023-04-24T05:01:24;0.8;;;0.8;;
17949;SDS011;9100;48.700;9.316;2023-04-24T05:02:24;0.8;;;0.8;;
17949;SDS011;9100;48.700;9.316;2023-04-24T05:03:24;0.8;;;0.8;;
17949;SDS011;9100;48.700;9.316;2023-04-24T05:04:24;0.8;;;0.8;;
17949;SDS011;9100;48.700;9.316;2023-04-24T05:04:45;1.2;;;1.1;;
17949;SDS011;9100;48.700;9.316;2023-04-24T05:05:24;1.2;;;1.1;;
17949;SDS011;9100;48.700;9.316;2023-04-24T05:06:24;1.2;;;1.1;;
17949;SDS011;9100;48.700;9.316;2023-04-24T05:07:24;1.2;;;1.1;;
17949;SDS011;9100;48.700;9.316;2023-04-24T05:08:24;1.2;;;1.1;;
17949;SDS011;9100;48.700;9.316;2023-04-24T05:09:24;1.2;;;1.1;;
17949;SDS011;9100;48.700;9.316;2023-04-24T05:09:45;0.9;;;0.9;;
17949;SDS011;9100;48.700;9.316;2023-04-24T05:10:24;0.9;;;0.9;;
17949;SDS011;9100;48.700;9.316;2023-04-24T05:11:24;0.9;;;0.9;;
17949;SDS011;9100;48.700;9.316;2023-04-24T05:12:24;0.9;;;0.9;;
17949;SDS011;9100;48.700;9.316;2023-04-24T05:13:24;0.9;;;0.9;;
17949;SDS011;9100;48.700;9.316;2023-04-24T05:14:24;0.9;;;0.9;;
17949;SDS011;9100;48.700;9.316;2023-04-24T05:14:45;1.1;;;1;;
17949;SDS011;9100;48.700;9.316;2023-04-24T05:15:24;1.1;;;1;;
17949;SDS011;9100;48.700;9.316;2023-04-24T05:16:24;1.1;;;1;;
17949;SDS011;9100;48.700;9.316;2023-04-24T05:17:24;1.1;;;1;;